Memphis, Missouri
Current Conditions -  °F | °C
As of 10:55 PM on Sunday 21 Dec 2014 (Local Time) from KIRK Reporting Station
Overcast Overcast  
Wind Chill: 32°   Ceiling: 4800
Heat Index: 40°   Visibility: 9mi
Dew Point: 37°   Wind: 14mph
Humidity: 89%   Direction: 150°SSE
Pressure: 29.84"   Gusts: NA
Location:  40.46°N, 92.17°W
Report Text: KIRK 220455Z AUTO 15012KT 9SM OVC048 04/03 A2984 RMK AO2 SLP114 T00440028
Loading
Personal Weather Stations






























Interactive Weather Map New forecast layout! Learn more

10-Day Weather Forecast

Advertisements
Track Severe Weather on mobile